Time;durP1;ratioP1;P1;durP2;ratioP2;P2;SDS_P1;SDS_P2;PMS_P1;PMS_P2;Temp;Humidity;BMP_temperature;BMP_pressure;BME280_temperature;BME280_humidity;BME280_pressure;Samples;Min_cycle;Max_cycle;Signal;HPM_P1;HPM_P2
2022/11/06 00:00:13;;;;;;;8.70;5.80;;;9.50;99.90;;;;;;7394801;19;20191;-72
2022/11/06 00:02:38;;;;;;;7.93;5.47;;;9.20;99.90;;;;;;7396113;19;20543;-73
2022/11/06 00:07:50;;;;;;;6.90;5.63;;;8.60;99.90;;;;;;7395924;19;20654;-72
2022/11/06 00:10:16;;;;;;;8.47;5.40;;;8.40;99.90;;;;;;7397189;19;20206;-73
2022/11/06 00:12:42;;;;;;;7.63;5.60;;;8.30;99.90;;;;;;7396693;19;20164;-71
2022/11/06 00:15:08;;;;;;;7.87;5.33;;;7.70;99.90;;;;;;7395660;19;20158;-72
2022/11/06 00:17:34;;;;;;;7.37;5.10;;;8.10;99.90;;;;;;7395037;19;20710;-73
2022/11/06 00:20:00;;;;;;;8.20;5.63;;;8.00;99.90;;;;;;7394405;19;20143;-71
2022/11/06 00:22:26;;;;;;;7.37;5.87;;;8.50;99.90;;;;;;7394495;19;20162;-71
2022/11/06 00:24:52;;;;;;;8.10;6.23;;;8.80;99.90;;;;;;7394972;19;20134;-72
2022/11/06 00:27:18;;;;;;;10.47;5.70;;;8.60;99.90;;;;;;7394480;19;20141;-72
2022/11/06 00:29:43;;;;;;;8.50;5.90;;;8.80;99.90;;;;;;7395349;19;20497;-72
2022/11/06 00:32:09;;;;;;;8.83;6.27;;;9.10;99.90;;;;;;7396290;19;20507;-73
2022/11/06 00:34:35;;;;;;;9.37;6.43;;;9.20;99.90;;;;;;7396968;19;20830;-73
2022/11/06 00:37:00;;;;;;;7.77;5.77;;;8.60;99.90;;;;;;7396050;19;20156;-72
2022/11/06 00:39:26;;;;;;;8.97;5.63;;;8.10;99.90;;;;;;7395450;19;20154;-72
2022/11/06 00:41:52;;;;;;;11.47;6.07;;;8.20;99.90;;;;;;7394229;19;20149;-72
2022/11/06 00:44:18;;;;;;;9.20;6.13;;;8.40;99.90;;;;;;7394480;19;20139;-70
2022/11/06 00:46:43;;;;;;;8.07;5.70;;;8.40;99.90;;;;;;7394890;19;20633;-72
2022/11/06 00:49:09;;;;;;;8.10;5.77;;;8.60;99.90;;;;;;7394332;19;20131;-72
2022/11/06 00:51:38;;;;;;;8.43;5.60;;;8.90;99.90;;;;;;7395807;19;20134;-72
2022/11/06 00:54:07;;;;;;;9.07;5.93;;;9.00;99.90;;;;;;7396807;19;20153;-72
2022/11/06 00:56:34;;;;;;;9.33;6.50;;;9.00;99.90;;;;;;7396685;19;20223;-73
2022/11/06 00:59:03;;;;;;;8.77;6.20;;;9.10;99.90;;;;;;7394614;19;20135;-71
2022/11/06 01:01:30;;;;;;;10.47;6.20;;;8.80;99.90;;;;;;7393267;19;20529;-72
2022/11/06 01:03:59;;;;;;;9.30;5.90;;;9.00;99.90;;;;;;7393292;19;20154;-72
2022/11/06 01:06:27;;;;;;;7.80;6.20;;;8.90;99.90;;;;;;7394972;19;20161;-73
2022/11/06 01:08:54;;;;;;;9.47;6.97;;;9.10;99.90;;;;;;7395481;19;20169;-73
2022/11/06 01:11:26;;;;;;;11.13;6.27;;;9.20;99.90;;;;;;7395221;19;20162;-72
2022/11/06 01:13:54;;;;;;;11.87;6.17;;;9.20;99.90;;;;;;7395467;19;20141;-71
2022/11/06 01:16:21;;;;;;;9.53;6.67;;;9.20;99.90;;;;;;7396658;19;20151;-72
2022/11/06 01:18:47;;;;;;;8.37;5.87;;;9.20;99.90;;;;;;7394130;19;20153;-71
2022/11/06 01:21:16;;;;;;;9.97;6.57;;;9.20;99.90;;;;;;7393816;19;20158;-72
2022/11/06 01:23:43;;;;;;;10.27;6.87;;;9.20;99.90;;;;;;7387912;19;20150;-73
2022/11/06 01:26:11;;;;;;;9.70;6.30;;;8.70;99.90;;;;;;7395155;19;20149;-73
2022/11/06 01:28:38;;;;;;;8.20;6.03;;;8.20;99.90;;;;;;7395584;19;20222;-71
2022/11/06 01:31:09;;;;;;;8.40;5.67;;;7.90;99.90;;;;;;7395926;19;20154;-72
2022/11/06 01:33:35;;;;;;;7.57;6.10;;;7.80;99.90;;;;;;7398428;19;20144;-72
2022/11/06 01:36:00;;;;;;;9.10;5.77;;;7.90;99.90;;;;;;7394269;19;20138;-72
2022/11/06 01:38:27;;;;;;;8.87;6.37;;;8.10;99.90;;;;;;7393769;19;20137;-72
2022/11/06 01:40:53;;;;;;;9.23;5.83;;;8.40;99.90;;;;;;7391022;19;20150;-73
2022/11/06 01:43:41;;;;;;;8.67;6.13;;;8.50;99.90;;;;;;7392472;19;20127;-73
2022/11/06 01:46:06;;;;;;;9.37;5.67;;;8.70;99.90;;;;;;7393365;19;20190;-73
2022/11/06 01:48:32;;;;;;;8.57;6.23;;;8.90;99.90;;;;;;7391211;19;20143;-72
2022/11/06 01:50:58;;;;;;;10.30;6.73;;;8.90;99.90;;;;;;7390394;19;20159;-72
2022/11/06 01:53:25;;;;;;;9.43;6.57;;;8.90;99.90;;;;;;7392773;19;20172;-72
2022/11/06 01:55:55;;;;;;;8.00;6.07;;;8.70;99.90;;;;;;7390866;19;20131;-72
2022/11/06 01:58:24;;;;;;;8.03;5.93;;;8.80;99.90;;;;;;7392215;19;20531;-73
2022/11/06 02:00:50;;;;;;;7.40;5.80;;;8.70;99.90;;;;;;7393794;19;20127;-71
2022/11/06 02:03:16;;;;;;;7.00;5.70;;;8.30;99.90;;;;;;7391137;19;20222;-72
2022/11/06 02:05:41;;;;;;;8.80;5.97;;;8.60;99.90;;;;;;7392600;19;20137;-73
2022/11/06 02:08:11;;;;;;;7.97;5.83;;;8.80;99.90;;;;;;7391915;19;20143;-72
2022/11/06 02:10:37;;;;;;;6.83;5.57;;;8.90;99.90;;;;;;7392191;19;20139;-73
2022/11/06 02:13:28;;;;;;;6.97;4.97;;;8.60;99.90;;;;;;7393874;19;20157;-72
2022/11/06 02:16:23;;;;;;;5.90;4.90;;;8.10;99.90;;;;;;7400098;19;20600;-72
2022/11/06 02:19:15;;;;;;;7.83;5.80;;;8.30;99.90;;;;;;7398035;19;20134;-73
2022/11/06 02:22:00;;;;;;;8.90;5.60;;;8.40;99.90;;;;;;7400538;19;20210;-72
2022/11/06 02:24:41;;;;;;;7.37;5.50;;;8.40;99.90;;;;;;7399884;19;20250;-72
2022/11/06 02:27:11;;;;;;;10.87;6.87;;;8.50;99.90;;;;;;7396417;19;20337;-72
2022/11/06 02:29:55;;;;;;;7.87;5.47;;;8.70;99.90;;;;;;7397822;19;20143;-73
2022/11/06 02:32:44;;;;;;;9.03;5.27;;;8.80;99.90;;;;;;7399984;19;20172;-73
2022/11/06 02:35:28;;;;;;;9.80;5.77;;;8.70;99.90;;;;;;7398400;19;20479;-72
2022/11/06 02:38:00;;;;;;;9.00;5.77;;;8.70;99.90;;;;;;7400877;19;20162;-72
2022/11/06 02:40:31;;;;;;;8.43;6.13;;;8.80;99.90;;;;;;7399328;19;20134;-73
2022/11/06 02:42:59;;;;;;;8.20;5.83;;;8.80;99.90;;;;;;7399782;19;20143;-73
2022/11/06 02:45:29;;;;;;;10.13;6.17;;;8.80;99.90;;;;;;7399955;19;20468;-73
2022/11/06 02:47:57;;;;;;;8.30;6.20;;;8.70;99.90;;;;;;7398456;19;20265;-72
2022/11/06 02:50:33;;;;;;;8.43;6.00;;;8.60;99.90;;;;;;7396895;19;20159;-72
2022/11/06 02:53:05;;;;;;;8.37;6.10;;;7.60;99.90;;;;;;7398357;19;20143;-71
2022/11/06 02:55:34;;;;;;;7.73;5.83;;;7.50;99.90;;;;;;7398548;19;20166;-73
2022/11/06 02:58:10;;;;;;;7.57;5.60;;;7.90;99.90;;;;;;7399213;19;20163;-72
2022/11/06 03:00:39;;;;;;;9.53;6.70;;;8.10;99.90;;;;;;7398519;19;20149;-72
2022/11/06 03:03:12;;;;;;;9.83;6.23;;;8.30;99.90;;;;;;7394842;19;20201;-72
2022/11/06 03:05:49;;;;;;;9.83;6.03;;;8.20;99.90;;;;;;7398429;19;20154;-73
2022/11/06 03:08:26;;;;;;;10.00;6.47;;;8.40;99.90;;;;;;7395374;19;20134;-72
2022/11/06 03:11:13;;;;;;;7.33;5.83;;;8.40;99.90;;;;;;7398897;19;20206;-71
2022/11/06 03:14:13;;;;;;;8.53;6.23;;;8.50;99.90;;;;;;7399955;19;20142;-72
2022/11/06 03:17:04;;;;;;;8.40;5.87;;;8.50;99.90;;;;;;7397078;19;20163;-82
2022/11/06 03:19:43;;;;;;;9.30;5.70;;;8.30;99.90;;;;;;7396605;19;20135;-80
2022/11/06 03:22:32;;;;;;;10.03;5.50;;;8.40;99.90;;;;;;7399120;19;20142;-81
2022/11/06 03:25:08;;;;;;;6.87;5.20;;;8.00;99.90;;;;;;7397498;19;20172;-80
2022/11/06 03:28:05;;;;;;;8.20;5.77;;;8.00;99.90;;;;;;7394451;19;20145;-78
2022/11/06 03:30:35;;;;;;;6.57;5.07;;;8.10;99.90;;;;;;7397189;19;20704;-81
2022/11/06 03:33:08;;;;;;;8.80;5.03;;;7.50;99.90;;;;;;7397702;19;20170;-80
2022/11/06 03:35:39;;;;;;;7.07;5.30;;;7.80;99.90;;;;;;7398076;19;20151;-79
2022/11/06 03:38:20;;;;;;;10.97;5.00;;;8.10;99.90;;;;;;7392441;19;20146;-80
2022/11/06 03:40:53;;;;;;;9.77;5.33;;;8.20;99.90;;;;;;7397482;19;20226;-79
2022/11/06 03:43:25;;;;;;;7.60;4.60;;;8.30;99.90;;;;;;7399192;19;20150;-80
2022/11/06 03:45:52;;;;;;;8.97;5.20;;;8.00;99.90;;;;;;7396774;19;20142;-81
2022/11/06 03:48:25;;;;;;;5.33;4.50;;;7.70;99.90;;;;;;7394901;19;20154;-80
2022/11/06 03:50:58;;;;;;;6.50;4.87;;;6.70;99.90;;;;;;7396319;19;20491;-81
2022/11/06 03:53:31;;;;;;;8.73;4.87;;;6.30;99.90;;;;;;7393882;19;20159;-81
2022/11/06 03:56:20;;;;;;;6.47;5.27;;;6.80;99.90;;;;;;7397510;19;20151;-81
2022/11/06 03:58:48;;;;;;;6.33;5.10;;;7.30;99.90;;;;;;7396948;19;20143;-81
2022/11/06 04:01:18;;;;;;;8.80;6.50;;;7.40;99.90;;;;;;7395799;19;20162;-81
2022/11/06 04:03:55;;;;;;;6.87;4.87;;;6.80;99.90;;;;;;7391568;19;20174;-82
2022/11/06 04:06:39;;;;;;;7.00;5.07;;;6.40;99.90;;;;;;7399330;19;20131;-82
2022/11/06 04:14:45;;;;;;;8.03;4.67;;;6.10;99.90;;;;;;7399139;19;20165;-79
2022/11/06 04:17:13;;;;;;;5.70;4.63;;;6.90;99.90;;;;;;7398730;19;20135;-81
2022/11/06 04:19:47;;;;;;;6.70;4.73;;;6.80;99.90;;;;;;7397714;19;20153;-79
2022/11/06 04:22:55;;;;;;;6.37;4.63;;;7.40;99.90;;;;;;7402292;19;20134;-80
2022/11/06 04:28:59;;;;;;;6.07;4.70;;;7.60;99.90;;;;;;7400879;19;20143;-80
2022/11/06 04:31:31;;;;;;;5.33;4.30;;;7.50;99.90;;;;;;7401501;19;20134;-80
2022/11/06 04:34:08;;;;;;;5.90;4.70;;;7.60;99.90;;;;;;7396345;19;20146;-79
2022/11/06 04:36:51;;;;;;;5.67;4.47;;;7.50;99.90;;;;;;7397677;19;20151;-81
2022/11/06 04:39:41;;;;;;;6.33;4.70;;;6.90;99.90;;;;;;7397229;19;20174;-81
2022/11/06 04:42:22;;;;;;;6.67;4.60;;;7.00;99.90;;;;;;7396334;19;20194;-80
2022/11/06 04:44:57;;;;;;;6.53;4.47;;;7.10;99.90;;;;;;7393069;19;20154;-79
2022/11/06 04:47:24;;;;;;;6.27;4.70;;;7.20;99.90;;;;;;7397047;19;20162;-79
2022/11/06 04:49:55;;;;;;;6.27;4.90;;;7.30;99.90;;;;;;7396939;19;20177;-82
2022/11/06 04:52:24;;;;;;;6.90;4.47;;;7.40;99.90;;;;;;7397836;19;20157;-80
2022/11/06 04:54:52;;;;;;;6.63;4.83;;;7.40;99.90;;;;;;7396744;19;20141;-80
2022/11/06 04:57:18;;;;;;;7.27;4.47;;;7.30;99.90;;;;;;7393985;19;20162;-81
2022/11/06 04:59:43;;;;;;;5.50;4.53;;;7.40;99.90;;;;;;7397463;19;20135;-80
2022/11/06 05:02:10;;;;;;;7.10;5.07;;;7.50;99.90;;;;;;7393818;19;20616;-79
2022/11/06 05:04:35;;;;;;;5.03;4.17;;;7.50;99.90;;;;;;7393890;19;20155;-80
2022/11/06 05:07:01;;;;;;;5.30;4.40;;;7.00;99.90;;;;;;7395112;19;20555;-81
2022/11/06 05:09:27;;;;;;;5.33;4.20;;;6.80;99.90;;;;;;7396571;19;20622;-81
2022/11/06 05:11:53;;;;;;;8.43;5.03;;;6.30;99.90;;;;;;7393838;19;20596;-80
2022/11/06 05:14:19;;;;;;;5.63;4.67;;;6.40;99.90;;;;;;7394489;19;20130;-81
2022/11/06 05:16:44;;;;;;;6.20;4.67;;;6.70;99.90;;;;;;7394960;19;20134;-81
2022/11/06 05:19:10;;;;;;;5.53;4.37;;;7.20;99.90;;;;;;7394116;19;20146;-81
2022/11/06 05:24:20;;;;;;;6.47;5.00;;;7.50;99.90;;;;;;7393689;19;20142;-81
2022/11/06 05:26:46;;;;;;;5.90;4.37;;;7.50;99.90;;;;;;7392702;19;20149;-81
2022/11/06 05:29:12;;;;;;;5.63;4.90;;;7.40;99.90;;;;;;7394091;19;20130;-78
2022/11/06 05:31:38;;;;;;;5.30;4.10;;;7.20;99.90;;;;;;7395401;19;20134;-80
2022/11/06 05:34:04;;;;;;;6.00;4.30;;;7.30;99.90;;;;;;7394975;19;20139;-78
2022/11/06 05:36:30;;;;;;;5.07;4.33;;;7.00;99.90;;;;;;7393701;19;20130;-79
2022/11/06 05:38:55;;;;;;;6.50;4.33;;;6.80;99.90;;;;;;7394050;19;20145;-78
2022/11/06 05:41:21;;;;;;;6.30;4.07;;;6.70;99.90;;;;;;7393917;19;20144;-80
2022/11/06 05:43:47;;;;;;;6.33;4.90;;;7.10;99.90;;;;;;7392966;19;20131;-81
2022/11/06 05:46:13;;;;;;;7.80;5.10;;;7.30;99.90;;;;;;7394665;19;20161;-81
2022/11/06 05:48:38;;;;;;;5.63;4.10;;;6.90;99.90;;;;;;7391324;19;20134;-81
2022/11/06 05:51:06;;;;;;;6.90;5.23;;;6.20;99.90;;;;;;7394290;19;20616;-82
2022/11/06 05:53:34;;;;;;;7.30;4.63;;;6.70;99.90;;;;;;7394930;19;20138;-79
2022/11/06 05:56:00;;;;;;;6.97;4.33;;;6.90;99.90;;;;;;7394198;19;20134;-82
2022/11/06 05:58:26;;;;;;;8.60;4.63;;;6.60;99.90;;;;;;7394639;19;20135;-81
2022/11/06 06:00:53;;;;;;;5.70;4.20;;;6.90;99.90;;;;;;7393063;19;20146;-81
2022/11/06 06:03:20;;;;;;;4.57;3.97;;;7.10;99.90;;;;;;7394249;19;20151;-81
2022/11/06 06:05:46;;;;;;;5.43;4.03;;;7.20;99.90;;;;;;7392661;19;20131;-81
2022/11/06 06:08:13;;;;;;;6.17;4.13;;;7.40;99.90;;;;;;7390225;19;20635;-81
2022/11/06 06:10:46;;;;;;;6.17;3.97;;;7.50;99.90;;;;;;7393453;19;20221;-80
2022/11/06 06:13:13;;;;;;;4.67;3.90;;;7.40;99.90;;;;;;7391692;19;20135;-80
2022/11/06 06:15:40;;;;;;;5.17;3.97;;;7.40;99.90;;;;;;7391354;19;20499;-80
2022/11/06 06:18:07;;;;;;;6.20;4.40;;;7.50;99.90;;;;;;7393140;19;20139;-78
2022/11/06 06:20:33;;;;;;;5.77;4.23;;;7.30;99.90;;;;;;7394294;19;20512;-80
2022/11/06 06:22:59;;;;;;;7.50;5.13;;;7.30;99.90;;;;;;7392083;19;20142;-81
2022/11/06 06:25:25;;;;;;;5.80;4.40;;;7.20;99.90;;;;;;7391792;19;20276;-79
2022/11/06 06:27:51;;;;;;;6.50;4.03;;;6.60;99.90;;;;;;7390726;19;20142;-81
2022/11/06 06:30:17;;;;;;;6.77;4.43;;;6.80;99.90;;;;;;7392334;19;20153;-79
2022/11/06 06:32:43;;;;;;;5.40;4.10;;;7.00;99.90;;;;;;7393511;19;20182;-79
2022/11/06 06:35:09;;;;;;;7.20;5.10;;;7.20;99.90;;;;;;7394415;19;20143;-80
2022/11/06 06:37:34;;;;;;;7.53;4.53;;;7.20;99.90;;;;;;7391804;19;20651;-80
2022/11/06 06:40:00;;;;;;;5.00;4.00;;;7.30;99.90;;;;;;7390328;19;20158;-81
2022/11/06 06:42:29;;;;;;;5.00;4.13;;;7.30;99.90;;;;;;7386725;19;20142;-81
2022/11/06 06:44:55;;;;;;;6.10;4.70;;;7.20;99.90;;;;;;7387791;19;20142;-80
2022/11/06 06:47:21;;;;;;;5.37;4.27;;;6.70;99.90;;;;;;7388206;19;20138;-81
2022/11/06 06:49:47;;;;;;;5.00;4.10;;;6.70;99.90;;;;;;7388709;19;20157;-78
2022/11/06 06:52:13;;;;;;;4.77;3.87;;;6.90;99.90;;;;;;7388486;19;20142;-81
2022/11/06 06:54:39;;;;;;;5.27;3.93;;;7.10;99.90;;;;;;7389194;19;20139;-80
2022/11/06 06:57:06;;;;;;;5.27;4.00;;;7.20;99.90;;;;;;7388475;19;20143;-80
2022/11/06 06:59:32;;;;;;;5.23;3.77;;;7.30;99.90;;;;;;7393986;19;20616;-81
2022/11/06 07:01:58;;;;;;;6.13;4.30;;;7.30;99.90;;;;;;7394238;19;20142;-79
2022/11/06 07:04:24;;;;;;;6.13;4.67;;;7.40;99.90;;;;;;7387189;19;20150;-81
2022/11/06 07:06:52;;;;;;;5.87;4.17;;;7.40;99.90;;;;;;7393079;19;20135;-79
2022/11/06 07:09:18;;;;;;;5.17;4.17;;;7.10;99.90;;;;;;7392605;19;20225;-82
2022/11/06 07:11:43;;;;;;;4.70;3.70;;;6.60;99.90;;;;;;7391534;19;20143;-80
2022/11/06 07:14:09;;;;;;;4.97;4.10;;;6.70;99.90;;;;;;7396386;19;20138;-80
2022/11/06 07:16:35;;;;;;;4.93;3.60;;;7.00;99.90;;;;;;7395744;19;20592;-79
2022/11/06 07:19:01;;;;;;;5.97;3.70;;;6.60;99.90;;;;;;7392988;19;20137;-82
2022/11/06 07:21:27;;;;;;;4.77;3.90;;;6.20;99.90;;;;;;7392319;19;20138;-77
2022/11/06 07:23:52;;;;;;;5.83;3.97;;;6.70;99.90;;;;;;7392744;19;20572;-81
2022/11/06 07:26:18;;;;;;;6.17;3.90;;;6.80;99.90;;;;;;7394430;19;20161;-80
2022/11/06 07:28:44;;;;;;;5.40;4.03;;;6.50;99.90;;;;;;7394924;19;20556;-78
2022/11/06 07:31:13;;;;;;;6.20;4.23;;;6.00;99.90;;;;;;7392530;19;20261;-81
2022/11/06 07:33:39;;;;;;;6.00;4.30;;;6.30;99.90;;;;;;7397776;19;20139;-80
2022/11/06 07:36:09;;;;;;;6.53;3.90;;;6.10;99.90;;;;;;7397858;19;20142;-81
2022/11/06 07:38:36;;;;;;;5.27;4.00;;;6.70;99.90;;;;;;7397166;19;20924;-82
2022/11/06 07:41:07;;;;;;;6.57;4.10;;;7.00;99.90;;;;;;7396281;19;20142;-77
2022/11/06 07:43:34;;;;;;;5.03;4.03;;;7.20;99.90;;;;;;7397417;19;20628;-80
2022/11/06 07:46:01;;;;;;;5.00;3.57;;;7.40;99.90;;;;;;7398176;19;20131;-82
2022/11/06 07:48:29;;;;;;;6.87;4.40;;;7.50;99.90;;;;;;7396165;19;20491;-82
2022/11/06 07:50:55;;;;;;;5.97;4.27;;;7.50;99.90;;;;;;7397188;19;20564;-82
2022/11/06 07:53:21;;;;;;;6.07;4.20;;;7.50;99.90;;;;;;7398889;19;20127;-81
2022/11/06 07:55:52;;;;;;;5.67;4.07;;;7.60;99.90;;;;;;7397459;19;20127;-79
2022/11/06 07:58:18;;;;;;;8.37;5.07;;;7.50;99.90;;;;;;7399223;19;20123;-82
2022/11/06 08:00:52;;;;;;;6.80;4.33;;;7.00;99.90;;;;;;7394645;19;20154;-78
2022/11/06 08:03:18;;;;;;;5.00;4.10;;;7.20;99.90;;;;;;7397489;19;20143;-80
2022/11/06 08:05:44;;;;;;;5.97;4.03;;;7.20;99.90;;;;;;7394338;19;20170;-77
2022/11/06 08:08:10;;;;;;;5.93;4.70;;;7.30;99.90;;;;;;7398266;19;20632;-78
2022/11/06 08:10:39;;;;;;;6.23;4.70;;;7.50;99.90;;;;;;7398674;19;20150;-79
2022/11/06 08:13:12;;;;;;;6.47;4.20;;;6.70;99.90;;;;;;7402076;19;20731;-81
2022/11/06 08:15:38;;;;;;;5.77;4.07;;;7.00;99.90;;;;;;7405219;19;20564;-80
2022/11/06 08:18:05;;;;;;;5.37;4.10;;;6.90;99.90;;;;;;7398061;19;20171;-77
2022/11/06 08:20:30;;;;;;;6.03;4.40;;;6.80;99.90;;;;;;7395970;19;20922;-78
2022/11/06 08:23:01;;;;;;;6.13;4.60;;;6.40;99.90;;;;;;7397688;19;20145;-78
2022/11/06 08:25:27;;;;;;;5.83;4.63;;;6.70;99.90;;;;;;7403557;19;20151;-76
2022/11/06 08:28:00;;;;;;;5.70;4.00;;;6.60;99.90;;;;;;7402598;19;20135;-79
2022/11/06 08:30:28;;;;;;;5.07;4.10;;;6.30;99.90;;;;;;7402292;19;20115;-82
2022/11/06 08:32:54;;;;;;;6.60;4.70;;;6.50;99.90;;;;;;7401092;19;20170;-79
2022/11/06 08:35:20;;;;;;;6.97;4.70;;;6.70;99.90;;;;;;7398210;19;20118;-79
2022/11/06 08:37:46;;;;;;;7.47;4.30;;;7.00;99.90;;;;;;7396195;19;20127;-78
2022/11/06 08:40:12;;;;;;;5.07;4.23;;;7.30;99.90;;;;;;7393916;19;20174;-80
2022/11/06 08:42:38;;;;;;;6.37;4.80;;;7.20;99.90;;;;;;7394920;19;20151;-82
2022/11/06 08:45:05;;;;;;;6.13;4.63;;;7.50;99.90;;;;;;7393002;19;20153;-81
2022/11/06 08:47:31;;;;;;;6.57;5.03;;;7.70;99.90;;;;;;7391787;19;20148;-79
2022/11/06 08:49:56;;;;;;;6.03;4.27;;;7.80;99.90;;;;;;7389999;19;20166;-79
2022/11/06 08:52:22;;;;;;;5.50;4.00;;;7.80;99.90;;;;;;7389797;19;20239;-82
2022/11/06 08:54:48;;;;;;;5.33;4.27;;;7.80;99.90;;;;;;7396201;19;20127;-78
2022/11/06 08:57:14;;;;;;;4.90;3.90;;;7.90;99.90;;;;;;7391495;19;20637;-82
2022/11/06 08:59:39;;;;;;;7.37;4.00;;;8.00;99.90;;;;;;7392203;19;20206;-81
2022/11/06 09:02:05;;;;;;;6.13;4.00;;;8.00;99.90;;;;;;7393319;19;20135;-82
2022/11/06 09:04:32;;;;;;;7.30;4.57;;;8.00;99.90;;;;;;7393046;19;20162;-81
2022/11/06 09:06:58;;;;;;;6.97;4.40;;;8.10;99.90;;;;;;7390782;19;20146;-82
2022/11/06 09:09:30;;;;;;;5.20;4.13;;;8.00;99.90;;;;;;7395353;19;20150;-76
2022/11/06 09:12:00;;;;;;;5.17;3.93;;;8.00;99.90;;;;;;7391134;19;20154;-84
2022/11/06 09:14:27;;;;;;;6.27;4.17;;;8.10;99.90;;;;;;7391208;19;20138;-80
2022/11/06 09:16:53;;;;;;;4.50;3.83;;;8.20;99.90;;;;;;7390588;19;20140;-82
2022/11/06 09:19:19;;;;;;;6.07;4.03;;;8.20;99.90;;;;;;7391189;19;20161;-81
2022/11/06 09:21:44;;;;;;;9.10;5.20;;;8.20;99.90;;;;;;7390592;19;20177;-80
2022/11/06 09:24:10;;;;;;;6.47;4.70;;;8.10;99.90;;;;;;7392344;19;20142;-82
2022/11/06 09:26:36;;;;;;;6.70;4.47;;;8.20;99.90;;;;;;7390732;19;20149;-80
2022/11/06 09:29:02;;;;;;;5.33;4.13;;;8.30;99.90;;;;;;7391366;19;20154;-81
2022/11/06 09:31:28;;;;;;;7.13;4.27;;;8.50;99.90;;;;;;7388602;19;20145;-75
2022/11/06 09:33:54;;;;;;;5.40;3.80;;;8.60;99.90;;;;;;7376510;19;21381;-80
2022/11/06 09:36:20;;;;;;;5.70;4.07;;;8.40;99.90;;;;;;7378899;19;20190;-82
2022/11/06 09:38:46;;;;;;;6.17;4.67;;;8.10;99.90;;;;;;7381125;19;20139;-80
2022/11/06 09:41:21;;;;;;;4.97;3.97;;;7.80;99.90;;;;;;7380021;19;20154;-75
2022/11/06 09:44:05;;;;;;;6.57;4.90;;;7.70;99.90;;;;;;7377660;19;20158;-82
2022/11/06 09:46:36;;;;;;;5.67;4.50;;;7.90;99.90;;;;;;7381115;19;20610;-81
2022/11/06 09:49:11;;;;;;;5.47;4.37;;;8.40;99.90;;;;;;7380167;19;20149;-80
2022/11/06 09:51:57;;;;;;;5.53;4.10;;;8.30;99.90;;;;;;7388807;19;20153;-80
2022/11/06 09:54:38;;;;;;;5.90;4.50;;;8.70;99.90;;;;;;7387802;19;20225;-77
2022/11/06 09:57:20;;;;;;;7.23;5.03;;;8.70;99.90;;;;;;7389028;19;20138;-78
2022/11/06 09:59:47;;;;;;;7.17;5.13;;;9.10;99.90;;;;;;7388435;19;20164;-78
2022/11/06 10:02:23;;;;;;;6.73;4.77;;;9.30;99.90;;;;;;7391092;19;20130;-81
2022/11/06 10:04:57;;;;;;;6.70;4.47;;;9.20;99.90;;;;;;7390141;19;20613;-78
2022/11/06 10:07:30;;;;;;;7.47;5.20;;;9.40;99.90;;;;;;7383795;19;20615;-79
2022/11/06 10:09:56;;;;;;;7.63;5.50;;;9.50;99.90;;;;;;7390027;19;20603;-79
2022/11/06 10:12:27;;;;;;;6.67;4.80;;;9.70;99.90;;;;;;7392623;19;20139;-79
2022/11/06 10:15:06;;;;;;;7.97;5.43;;;9.80;99.90;;;;;;7390948;19;20626;-78
2022/11/06 10:17:34;;;;;;;7.10;5.13;;;9.80;99.90;;;;;;7391578;19;20130;-78
2022/11/06 10:20:06;;;;;;;7.20;4.97;;;9.90;99.90;;;;;;7387168;19;20230;-79
2022/11/06 10:23:00;;;;;;;6.47;4.70;;;9.80;99.90;;;;;;7390011;19;20482;-81
2022/11/06 10:26:01;;;;;;;6.53;4.77;;;9.90;99.90;;;;;;7387586;19;20160;-79
2022/11/06 10:28:29;;;;;;;5.77;4.63;;;9.90;99.90;;;;;;7385031;19;20510;-78
2022/11/06 10:31:36;;;;;;;6.77;4.70;;;10.10;99.90;;;;;;7389853;19;20135;-77
2022/11/06 10:34:05;;;;;;;6.77;4.93;;;10.00;99.90;;;;;;7388543;19;20149;-79
2022/11/06 10:36:46;;;;;;;8.57;4.97;;;10.00;99.90;;;;;;7397196;19;20184;-79
2022/11/06 10:39:22;;;;;;;7.47;5.13;;;10.10;99.90;;;;;;7398025;19;20129;-78
2022/11/06 10:41:52;;;;;;;6.77;5.13;;;10.20;99.90;;;;;;7398494;19;20657;-79
2022/11/06 10:44:21;;;;;;;7.93;5.40;;;10.20;99.90;;;;;;7400303;19;20171;-79
2022/11/06 10:46:52;;;;;;;6.90;5.30;;;10.30;99.90;;;;;;7397346;19;20138;-78
2022/11/06 10:49:43;;;;;;;8.57;6.07;;;10.40;99.90;;;;;;7398074;19;20135;-79
2022/11/06 10:52:11;;;;;;;9.30;5.70;;;10.40;99.90;;;;;;7398001;19;20172;-77
2022/11/06 10:54:42;;;;;;;8.57;5.43;;;10.40;99.90;;;;;;7387433;19;20184;-79
2022/11/06 10:57:13;;;;;;;13.87;6.70;;;10.40;99.90;;;;;;7389296;19;20164;-78
2022/11/06 10:59:39;;;;;;;7.30;4.87;;;10.40;99.90;;;;;;7395186;19;20651;-78
2022/11/06 11:02:26;;;;;;;6.70;5.10;;;10.50;99.90;;;;;;7390211;19;20122;-78
2022/11/06 11:04:52;;;;;;;7.07;4.50;;;10.50;99.90;;;;;;7393982;19;20148;-78
2022/11/06 11:07:18;;;;;;;6.73;4.30;;;10.60;99.90;;;;;;7393221;19;20202;-77
2022/11/06 11:09:45;;;;;;;5.10;4.40;;;10.70;99.90;;;;;;7392038;19;20151;-77
2022/11/06 11:12:26;;;;;;;5.77;4.60;;;10.60;99.90;;;;;;7395404;19;20149;-79
2022/11/06 11:15:13;;;;;;;6.30;5.17;;;10.50;99.90;;;;;;7395932;19;20612;-76
2022/11/06 11:17:41;;;;;;;6.57;4.43;;;10.70;99.90;;;;;;7395283;19;20148;-76
2022/11/06 11:20:32;;;;;;;6.63;4.40;;;10.80;99.90;;;;;;7392283;19;20443;-77
2022/11/06 11:23:22;;;;;;;5.43;4.50;;;10.90;99.90;;;;;;7395336;19;20138;-76
2022/11/06 11:25:53;;;;;;;5.80;4.00;;;10.90;99.90;;;;;;7392388;19;20134;-76
2022/11/06 11:28:34;;;;;;;6.07;4.50;;;11.00;99.90;;;;;;7391773;19;20139;-77
2022/11/06 11:31:15;;;;;;;5.03;3.93;;;11.10;99.90;;;;;;7392786;19;20252;-77
2022/11/06 11:33:52;;;;;;;4.80;3.90;;;11.00;99.90;;;;;;7398975;19;20588;-75
2022/11/06 11:36:17;;;;;;;5.80;3.90;;;11.20;99.90;;;;;;7394627;19;20158;-76
2022/11/06 11:38:44;;;;;;;4.50;3.37;;;11.40;99.90;;;;;;7395617;19;20139;-79
2022/11/06 11:41:13;;;;;;;3.70;3.10;;;11.40;99.90;;;;;;7394862;19;20154;-78
2022/11/06 11:43:40;;;;;;;3.80;2.80;;;11.50;99.90;;;;;;7397254;19;20528;-78
2022/11/06 11:46:09;;;;;;;3.80;2.90;;;11.60;99.90;;;;;;7392370;19;20138;-80
2022/11/06 11:49:04;;;;;;;4.43;2.90;;;11.60;99.90;;;;;;7392138;19;20753;-80
2022/11/06 11:51:32;;;;;;;4.23;3.17;;;11.60;99.90;;;;;;7394295;19;20142;-78
2022/11/06 11:54:09;;;;;;;6.20;3.20;;;11.40;99.90;;;;;;7394018;19;20135;-79
2022/11/06 11:56:53;;;;;;;5.37;3.13;;;11.50;99.90;;;;;;7396503;19;20130;-79
2022/11/06 11:59:27;;;;;;;4.47;2.90;;;11.60;99.90;;;;;;7397433;19;20130;-78
2022/11/06 12:01:56;;;;;;;3.73;2.73;;;11.60;99.90;;;;;;7393797;19;20134;-76
2022/11/06 12:04:39;;;;;;;3.73;2.87;;;11.60;99.90;;;;;;7391058;19;20207;-78
2022/11/06 12:07:22;;;;;;;3.70;2.90;;;11.60;99.90;;;;;;7394261;19;20142;-78
2022/11/06 12:09:49;;;;;;;5.27;3.33;;;11.80;99.90;;;;;;7396776;19;20137;-79
2022/11/06 12:12:30;;;;;;;4.03;2.77;;;11.80;99.90;;;;;;7397859;19;20130;-78
2022/11/06 12:15:28;;;;;;;4.40;3.00;;;11.60;99.90;;;;;;7398301;19;20183;-77
2022/11/06 12:18:04;;;;;;;3.37;2.80;;;11.70;99.90;;;;;;7396748;19;20130;-79
2022/11/06 12:20:53;;;;;;;3.83;3.10;;;11.90;99.90;;;;;;7396869;19;20670;-78
2022/11/06 12:23:30;;;;;;;3.40;2.70;;;12.00;99.90;;;;;;7403218;19;20174;-79
2022/11/06 12:26:03;;;;;;;3.97;3.23;;;12.00;99.90;;;;;;7402043;19;20477;-78
2022/11/06 12:28:32;;;;;;;3.37;2.80;;;12.10;99.90;;;;;;7404066;19;20134;-78
2022/11/06 12:31:04;;;;;;;4.17;3.10;;;12.20;99.90;;;;;;7402806;19;20138;-78
2022/11/06 12:33:31;;;;;;;4.40;2.90;;;12.20;99.90;;;;;;7406833;19;20687;-77
2022/11/06 12:36:03;;;;;;;3.27;2.53;;;12.20;99.90;;;;;;7403062;19;20154;-80
2022/11/06 12:38:39;;;;;;;4.20;3.10;;;12.30;99.90;;;;;;7404744;19;20122;-79
2022/11/06 12:41:20;;;;;;;5.00;2.63;;;12.30;99.90;;;;;;7401354;19;20194;-79
2022/11/06 12:43:48;;;;;;;3.80;3.00;;;12.30;99.90;;;;;;7399663;19;20153;-79
2022/11/06 12:46:20;;;;;;;3.37;2.77;;;12.10;99.90;;;;;;7400047;19;20131;-79
2022/11/06 12:48:57;;;;;;;3.33;2.57;;;12.10;99.90;;;;;;7394545;19;20156;-80
2022/11/06 12:51:34;;;;;;;3.70;2.67;;;12.10;99.90;;;;;;7394411;19;20147;-77
2022/11/06 12:54:22;;;;;;;3.73;2.40;;;12.10;99.90;;;;;;7391349;19;20152;-78
2022/11/06 12:57:15;;;;;;;3.10;2.53;;;11.90;99.90;;;;;;7393637;19;20154;-77
2022/11/06 12:59:41;;;;;;;2.87;2.57;;;12.00;99.90;;;;;;7393086;19;20158;-77
2022/11/06 13:02:25;;;;;;;3.97;2.77;;;11.80;99.90;;;;;;7391994;19;20147;-80
2022/11/06 13:05:12;;;;;;;2.87;2.33;;;11.90;99.90;;;;;;7393459;19;20131;-79
2022/11/06 13:08:03;;;;;;;2.63;2.20;;;11.80;99.90;;;;;;7391368;19;20166;-77
2022/11/06 13:10:41;;;;;;;4.17;2.90;;;11.90;99.90;;;;;;7391876;19;20875;-78
2022/11/06 13:13:20;;;;;;;3.73;2.70;;;12.00;99.90;;;;;;7387929;19;20154;-77
2022/11/06 13:15:59;;;;;;;3.67;2.87;;;12.10;99.90;;;;;;7388049;19;20496;-77
2022/11/06 13:18:34;;;;;;;3.67;2.83;;;12.00;99.90;;;;;;7389930;19;20142;-77
2022/11/06 13:21:14;;;;;;;3.97;3.03;;;12.20;99.90;;;;;;7393102;19;20138;-77
2022/11/06 13:24:01;;;;;;;3.50;2.23;;;12.10;99.90;;;;;;7389608;19;20157;-79
2022/11/06 13:26:39;;;;;;;4.27;3.17;;;12.00;99.90;;;;;;7393620;19;20150;-77
2022/11/06 13:29:10;;;;;;;3.30;2.67;;;12.00;99.90;;;;;;7392025;19;20142;-78
2022/11/06 13:31:43;;;;;;;3.63;2.50;;;12.20;99.90;;;;;;7391136;19;20168;-77